Time;durP1;ratioP1;P1;durP2;ratioP2;P2;SDS_P1;SDS_P2;PMS_P1;PMS_P2;Temp;Humidity;BMP_temperature;BMP_pressure;BME280_temperature;BME280_humidity;BME280_pressure;Samples;Min_cycle;Max_cycle;Signal;HPM_P1;HPM_P2
2022/03/20 00:02:20;;;;;;;37.70;18.70;;;4.80;68.90;;;;;;5098251;28;20669;-76
2022/03/20 00:04:46;;;;;;;42.53;21.67;;;4.80;68.80;;;;;;5097728;28;20183;-77
2022/03/20 00:07:12;;;;;;;37.77;18.50;;;4.80;69.10;;;;;;5094492;28;20201;-77
2022/03/20 00:09:38;;;;;;;33.43;19.17;;;4.80;69.40;;;;;;5096400;28;20264;-77
2022/03/20 00:12:05;;;;;;;31.80;17.30;;;4.80;69.40;;;;;;5095480;28;20530;-77
2022/03/20 00:14:31;;;;;;;35.17;19.50;;;4.80;69.40;;;;;;5095966;28;20429;-77
2022/03/20 00:16:56;;;;;;;36.57;20.50;;;4.80;69.40;;;;;;5099375;28;20528;-77
2022/03/20 00:19:22;;;;;;;31.90;18.83;;;4.80;69.40;;;;;;5077932;28;20568;-76
2022/03/20 00:21:48;;;;;;;37.77;18.87;;;4.80;69.10;;;;;;5093899;28;20211;-76
2022/03/20 00:24:15;;;;;;;34.00;17.00;;;4.80;68.90;;;;;;5093929;28;20432;-77
2022/03/20 00:26:41;;;;;;;32.87;18.30;;;4.80;68.80;;;;;;5092933;28;20175;-75
2022/03/20 00:29:07;;;;;;;34.03;18.27;;;4.80;68.60;;;;;;5094398;28;20410;-77
2022/03/20 00:31:34;;;;;;;35.73;18.80;;;4.80;67.90;;;;;;5070454;28;20441;-77
2022/03/20 00:34:00;;;;;;;33.73;19.40;;;4.80;67.30;;;;;;5095393;28;20187;-77
2022/03/20 00:36:26;;;;;;;37.70;19.43;;;4.70;67.30;;;;;;5076103;28;20434;-77
2022/03/20 00:38:52;;;;;;;29.60;17.30;;;4.70;67.30;;;;;;5097133;28;20821;-77
2022/03/20 00:41:17;;;;;;;35.50;18.80;;;4.70;67.30;;;;;;5105571;28;20538;-78
2022/03/20 00:43:43;;;;;;;31.40;18.77;;;4.80;67.00;;;;;;5108127;28;20172;-77
2022/03/20 00:46:09;;;;;;;30.63;18.30;;;4.70;67.20;;;;;;5100924;28;20183;-76
2022/03/20 00:48:35;;;;;;;37.50;18.53;;;4.70;67.20;;;;;;5083295;28;20187;-76
2022/03/20 00:51:03;;;;;;;37.07;18.10;;;4.80;67.00;;;;;;5083363;28;20478;-76
2022/03/20 00:53:32;;;;;;;34.23;17.30;;;4.80;68.50;;;;;;5096930;28;20467;-77
2022/03/20 00:55:58;;;;;;;37.67;17.07;;;4.80;68.20;;;;;;5091133;28;20794;-77
2022/03/20 00:58:23;;;;;;;32.20;18.30;;;4.80;67.30;;;;;;5094773;28;20433;-78
2022/03/20 01:00:50;;;;;;;28.23;15.80;;;4.80;67.20;;;;;;5096297;28;20202;-77
2022/03/20 01:03:16;;;;;;;32.03;18.03;;;4.80;67.20;;;;;;5103378;28;20195;-78
2022/03/20 01:05:42;;;;;;;35.47;18.30;;;4.80;67.30;;;;;;5084792;28;20461;-76
2022/03/20 01:08:08;;;;;;;27.43;16.87;;;4.80;67.50;;;;;;5093688;28;20446;-76
2022/03/20 01:10:33;;;;;;;31.13;16.30;;;4.80;67.50;;;;;;5077875;28;20715;-75
2022/03/20 01:12:59;;;;;;;34.20;17.47;;;4.80;67.20;;;;;;5094498;28;20274;-77
2022/03/20 01:15:25;;;;;;;29.10;17.17;;;4.80;67.20;;;;;;5095314;28;20662;-77
2022/03/20 01:17:51;;;;;;;30.20;17.30;;;4.80;67.20;;;;;;5087322;28;20440;-75
2022/03/20 01:20:17;;;;;;;31.43;16.80;;;4.70;67.00;;;;;;5096096;28;20465;-77
2022/03/20 01:22:43;;;;;;;33.57;16.77;;;4.70;66.70;;;;;;5095400;28;20203;-77
2022/03/20 01:25:09;;;;;;;30.23;16.00;;;4.70;66.90;;;;;;5081808;28;20421;-77
2022/03/20 01:27:36;;;;;;;39.27;17.67;;;4.70;66.70;;;;;;5095344;28;20175;-77
2022/03/20 01:30:03;;;;;;;33.70;18.13;;;4.70;66.10;;;;;;5078066;28;20425;-75
2022/03/20 01:32:30;;;;;;;29.73;16.63;;;4.70;65.80;;;;;;5096414;28;20498;-77
2022/03/20 01:34:55;;;;;;;31.93;17.23;;;4.60;65.70;;;;;;5096672;28;20884;-77
2022/03/20 01:37:22;;;;;;;29.60;15.93;;;4.60;65.70;;;;;;5095613;28;20429;-78
2022/03/20 01:39:47;;;;;;;32.07;17.10;;;4.60;65.80;;;;;;5098251;28;20179;-77
2022/03/20 01:42:13;;;;;;;40.07;18.80;;;4.60;65.60;;;;;;5096604;28;20522;-77
2022/03/20 01:44:39;;;;;;;28.10;16.70;;;4.60;65.70;;;;;;5080963;28;20183;-77
2022/03/20 01:47:08;;;;;;;32.93;18.40;;;4.60;65.60;;;;;;5077276;28;20179;-77
2022/03/20 01:49:34;;;;;;;36.17;17.97;;;4.70;66.00;;;;;;5081363;28;20696;-77
2022/03/20 01:52:13;;;;;;;37.63;17.47;;;4.70;66.00;;;;;;5094683;28;20482;-77
2022/03/20 01:54:44;;;;;;;29.47;16.90;;;4.70;66.10;;;;;;5094039;28;20522;-76
2022/03/20 01:57:13;;;;;;;32.23;17.03;;;4.60;66.90;;;;;;5091773;28;20467;-77
2022/03/20 01:59:39;;;;;;;30.47;16.33;;;4.60;67.00;;;;;;5094104;28;20508;-76
2022/03/20 02:02:06;;;;;;;32.43;16.20;;;4.60;67.00;;;;;;5089445;28;20556;-77
2022/03/20 02:04:37;;;;;;;32.37;17.10;;;4.70;66.70;;;;;;5105416;28;20422;-77
2022/03/20 02:07:04;;;;;;;30.60;18.00;;;4.70;65.80;;;;;;5101580;28;20424;-77
2022/03/20 02:09:31;;;;;;;35.47;18.40;;;4.70;65.40;;;;;;5088239;28;21012;-77
2022/03/20 02:11:58;;;;;;;34.53;18.37;;;4.70;64.80;;;;;;5107382;28;20441;-76
2022/03/20 02:14:25;;;;;;;35.43;18.67;;;4.60;65.40;;;;;;5110722;28;20437;-76
2022/03/20 02:16:51;;;;;;;33.27;16.80;;;4.60;65.70;;;;;;5105771;28;20445;-78
2022/03/20 02:19:17;;;;;;;29.37;16.70;;;4.70;66.10;;;;;;5105257;28;20510;-76
2022/03/20 02:21:48;;;;;;;37.03;18.63;;;4.70;66.30;;;;;;5092386;28;20522;-77
2022/03/20 02:24:41;;;;;;;33.97;16.90;;;4.70;66.60;;;;;;5094616;28;20413;-78
2022/03/20 02:27:08;;;;;;;31.60;17.00;;;4.80;66.90;;;;;;5108046;28;20794;-77
2022/03/20 02:29:34;;;;;;;35.27;18.77;;;4.80;66.60;;;;;;5111845;28;20504;-77
2022/03/20 02:32:00;;;;;;;34.00;18.30;;;4.80;66.30;;;;;;5109278;28;20449;-77
2022/03/20 02:34:27;;;;;;;34.47;18.20;;;4.70;66.30;;;;;;5121037;28;20194;-75
2022/03/20 02:36:54;;;;;;;36.50;17.93;;;4.70;65.80;;;;;;5104336;28;20477;-76
2022/03/20 02:39:20;;;;;;;33.53;17.90;;;4.60;66.00;;;;;;5101826;28;20421;-76
2022/03/20 02:41:48;;;;;;;35.40;18.67;;;4.60;66.00;;;;;;5103574;28;20544;-78
2022/03/20 02:44:14;;;;;;;38.63;19.87;;;4.60;66.60;;;;;;5100441;28;20445;-77
2022/03/20 02:46:40;;;;;;;40.37;20.80;;;4.60;68.90;;;;;;5096931;28;20982;-77
2022/03/20 02:49:06;;;;;;;34.20;18.90;;;4.50;70.20;;;;;;5101267;28;20472;-77
2022/03/20 02:51:33;;;;;;;35.07;18.73;;;4.60;71.00;;;;;;5083524;28;20437;-76
2022/03/20 02:53:58;;;;;;;35.80;18.80;;;4.60;71.10;;;;;;5082287;28;20420;-76
2022/03/20 02:56:27;;;;;;;32.37;17.70;;;4.60;71.30;;;;;;5101678;28;20436;-76
2022/03/20 02:58:53;;;;;;;34.03;17.53;;;4.50;71.10;;;;;;5074867;28;20218;-77
2022/03/20 03:01:19;;;;;;;35.60;18.60;;;4.50;71.00;;;;;;5074788;28;20713;-77
2022/03/20 03:03:45;;;;;;;27.83;16.93;;;4.50;69.80;;;;;;5094021;28;20421;-76
2022/03/20 03:06:15;;;;;;;35.23;17.93;;;4.50;68.50;;;;;;5077129;28;20187;-76
2022/03/20 03:11:25;;;;;;;34.70;16.33;;;4.60;67.30;;;;;;5095893;28;20470;-77
2022/03/20 03:13:51;;;;;;;30.37;16.40;;;4.60;66.90;;;;;;5080302;28;20480;-77
2022/03/20 03:16:16;;;;;;;28.00;17.37;;;4.60;66.40;;;;;;5083940;28;20248;-77
2022/03/20 03:18:45;;;;;;;29.77;16.30;;;4.60;66.40;;;;;;5106826;28;20238;-77
2022/03/20 03:21:13;;;;;;;36.93;19.03;;;4.60;66.60;;;;;;5095700;28;20211;-77
2022/03/20 03:23:39;;;;;;;31.97;17.77;;;4.70;68.30;;;;;;5097636;28;20443;-76
2022/03/20 03:26:05;;;;;;;34.83;17.67;;;4.70;68.30;;;;;;5112782;28;20409;-77
2022/03/20 03:28:34;;;;;;;37.33;17.87;;;4.70;69.10;;;;;;5112104;28;20421;-77
2022/03/20 03:31:06;;;;;;;48.83;20.67;;;4.70;69.20;;;;;;5107252;28;20433;-77
2022/03/20 03:33:32;;;;;;;38.23;19.57;;;4.80;70.20;;;;;;5093008;28;20447;-76
2022/03/20 03:35:57;;;;;;;42.77;19.10;;;4.70;70.80;;;;;;5107180;28;20503;-77
2022/03/20 03:38:30;;;;;;;40.00;20.90;;;4.70;71.00;;;;;;5112427;28;20905;-77
2022/03/20 03:40:57;;;;;;;38.13;20.00;;;4.70;71.00;;;;;;5096346;28;20216;-76
2022/03/20 03:43:23;;;;;;;39.40;19.40;;;4.70;71.10;;;;;;5097577;28;20471;-77
2022/03/20 03:45:50;;;;;;;40.77;20.33;;;4.70;71.00;;;;;;5087856;28;20433;-76
2022/03/20 03:48:19;;;;;;;38.53;19.80;;;4.60;70.70;;;;;;5106811;28;20437;-77
2022/03/20 03:50:47;;;;;;;38.73;19.90;;;4.60;70.40;;;;;;5095817;28;20466;-76
2022/03/20 03:53:13;;;;;;;35.50;18.80;;;4.70;70.10;;;;;;5102005;28;20432;-76
2022/03/20 03:55:43;;;;;;;38.17;18.93;;;4.70;69.70;;;;;;5080303;28;20426;-77
2022/03/20 03:58:10;;;;;;;39.80;18.47;;;4.70;69.50;;;;;;5097351;28;20417;-76
2022/03/20 04:00:36;;;;;;;30.40;17.03;;;4.70;69.50;;;;;;5097773;28;20460;-76
2022/03/20 04:03:02;;;;;;;33.00;18.13;;;4.80;69.80;;;;;;5095970;28;20417;-76
2022/03/20 04:05:28;;;;;;;35.90;17.07;;;4.80;69.70;;;;;;5100122;28;20175;-77
2022/03/20 04:07:55;;;;;;;32.37;17.90;;;4.90;69.50;;;;;;5107592;28;20452;-76
2022/03/20 04:10:22;;;;;;;30.70;16.67;;;4.90;69.20;;;;;;5080822;28;20417;-77
2022/03/20 04:12:48;;;;;;;30.13;17.33;;;5.00;69.10;;;;;;5095517;28;20647;-75
2022/03/20 04:15:17;;;;;;;43.20;17.70;;;5.10;68.90;;;;;;5100424;28;20412;-77
2022/03/20 04:17:44;;;;;;;31.33;17.70;;;5.10;68.60;;;;;;5094631;28;20414;-77
2022/03/20 04:20:14;;;;;;;37.17;18.83;;;5.10;68.30;;;;;;5095630;28;20421;-77
2022/03/20 04:23:42;;;;;;;34.20;17.80;;;5.10;68.00;;;;;;5103612;28;20437;-77
2022/03/20 04:25:29;;;;;;;33.00;17.23;;;5.00;68.00;;;;;;5097648;28;20413;-77
2022/03/20 04:27:58;;;;;;;34.40;18.73;;;4.90;68.50;;;;;;5082027;28;20417;-76
2022/03/20 04:30:25;;;;;;;32.37;18.67;;;4.90;69.10;;;;;;5095309;28;20425;-76
2022/03/20 04:32:52;;;;;;;39.70;19.27;;;4.90;69.40;;;;;;5075802;28;20842;-77
2022/03/20 04:35:25;;;;;;;40.40;19.40;;;4.90;69.40;;;;;;5094143;28;20467;-75
2022/03/20 04:37:52;;;;;;;37.13;21.30;;;4.80;69.20;;;;;;5094048;28;20424;-77
2022/03/20 04:40:18;;;;;;;41.63;20.30;;;4.70;69.10;;;;;;5076851;28;20521;-76
2022/03/20 04:42:44;;;;;;;38.70;19.67;;;4.70;68.90;;;;;;5076978;28;20919;-78
2022/03/20 04:45:11;;;;;;;37.13;19.73;;;4.70;69.20;;;;;;5097784;28;20586;-77
2022/03/20 04:58:36;;;;;;;41.93;20.30;;;5.00;68.00;;;;;;5099378;28;20404;-77
2022/03/20 05:01:02;;;;;;;38.70;20.33;;;4.90;67.50;;;;;;5116233;28;20504;-77
2022/03/20 05:03:31;;;;;;;37.03;18.87;;;4.90;67.50;;;;;;5116654;28;20441;-78
2022/03/20 05:05:57;;;;;;;31.03;18.47;;;5.00;67.60;;;;;;5115010;28;20473;-77
2022/03/20 05:08:23;;;;;;;36.67;20.00;;;5.00;67.50;;;;;;5094522;28;20481;-76
2022/03/20 05:13:33;;;;;;;34.30;17.80;;;5.10;67.30;;;;;;5095324;28;20611;-77
2022/03/20 05:15:59;;;;;;;37.50;20.57;;;5.10;67.20;;;;;;5078108;28;20429;-77
2022/03/20 05:18:25;;;;;;;35.33;19.87;;;5.20;66.70;;;;;;5093163;28;20420;-79
2022/03/20 05:20:52;;;;;;;35.73;19.30;;;5.20;66.70;;;;;;5092692;28;20301;-76
2022/03/20 05:23:19;;;;;;;34.60;18.80;;;5.30;66.60;;;;;;5092358;28;20176;-78
2022/03/20 05:25:45;;;;;;;35.43;18.10;;;5.40;66.40;;;;;;5074057;28;20417;-76
2022/03/20 05:28:10;;;;;;;35.53;19.67;;;5.40;65.70;;;;;;5092941;28;20452;-79
2022/03/20 05:30:36;;;;;;;42.30;21.37;;;5.40;65.30;;;;;;5091717;28;20183;-78
2022/03/20 05:33:02;;;;;;;35.20;18.70;;;5.40;65.10;;;;;;5098875;28;20711;-78
2022/03/20 05:35:29;;;;;;;36.23;18.53;;;5.40;65.40;;;;;;5093454;28;20668;-77
2022/03/20 05:37:55;;;;;;;37.83;19.47;;;5.50;65.10;;;;;;5092064;28;20520;-78
2022/03/20 05:40:20;;;;;;;36.93;19.60;;;5.60;64.50;;;;;;5091693;28;20410;-78
2022/03/20 05:42:46;;;;;;;39.00;18.53;;;5.60;64.50;;;;;;5092928;28;20436;-77
2022/03/20 05:45:12;;;;;;;43.57;20.07;;;5.70;63.90;;;;;;5090743;28;20213;-77
2022/03/20 05:47:40;;;;;;;36.53;19.27;;;5.70;64.10;;;;;;5091960;28;20179;-79
2022/03/20 05:50:08;;;;;;;40.73;21.10;;;5.80;64.10;;;;;;5091528;28;20213;-78
2022/03/20 05:52:35;;;;;;;39.13;19.87;;;5.90;63.90;;;;;;5085567;28;20950;-77
2022/03/20 05:55:05;;;;;;;40.70;19.77;;;6.00;62.90;;;;;;5092190;28;20409;-80
2022/03/20 06:00:23;;;;;;;41.63;20.23;;;6.10;62.60;;;;;;5092615;28;20980;-80
2022/03/20 06:02:50;;;;;;;33.93;19.30;;;6.10;62.30;;;;;;5092827;28;20440;-79
2022/03/20 06:05:16;;;;;;;37.80;19.77;;;6.20;62.30;;;;;;5092780;28;20782;-78
2022/03/20 06:07:43;;;;;;;34.00;19.37;;;6.20;62.50;;;;;;5092071;28;20417;-78
2022/03/20 06:10:14;;;;;;;42.20;19.80;;;6.20;61.70;;;;;;5092340;28;20504;-79
2022/03/20 06:12:41;;;;;;;36.00;19.83;;;6.30;61.30;;;;;;5092710;28;20474;-77
2022/03/20 06:15:08;;;;;;;38.37;20.27;;;6.30;61.30;;;;;;5100393;28;20413;-77
2022/03/20 06:17:39;;;;;;;36.30;20.30;;;6.40;61.60;;;;;;5093486;28;20409;-78
2022/03/20 06:20:07;;;;;;;46.90;21.90;;;6.40;60.90;;;;;;5094041;28;20497;-76
2022/03/20 06:22:34;;;;;;;40.13;21.00;;;6.50;60.70;;;;;;5093270;28;20469;-78
2022/03/20 06:25:02;;;;;;;45.97;21.50;;;6.60;61.00;;;;;;5094723;28;20915;-77
2022/03/20 06:27:28;;;;;;;43.47;22.40;;;6.70;60.60;;;;;;5093432;28;20412;-79
2022/03/20 06:29:55;;;;;;;41.20;21.20;;;6.70;60.40;;;;;;5081836;28;20429;-79
2022/03/20 06:32:20;;;;;;;44.60;22.27;;;6.90;60.40;;;;;;5103441;28;20199;-79
2022/03/20 06:34:46;;;;;;;44.43;22.93;;;6.90;59.70;;;;;;5098890;28;20420;-77
2022/03/20 06:37:12;;;;;;;44.40;22.10;;;7.00;59.70;;;;;;5094136;28;20934;-79
2022/03/20 06:39:38;;;;;;;38.73;20.60;;;7.00;59.50;;;;;;5096463;28;20183;-77
2022/03/20 06:42:04;;;;;;;38.23;21.73;;;7.10;59.20;;;;;;5076139;28;20297;-77
2022/03/20 06:44:29;;;;;;;42.90;20.33;;;7.20;59.10;;;;;;5098275;28;20195;-79
2022/03/20 06:46:55;;;;;;;45.90;22.23;;;7.20;58.80;;;;;;5094712;28;20477;-76
2022/03/20 06:49:22;;;;;;;43.33;22.47;;;7.20;58.90;;;;;;5082914;28;20198;-79
2022/03/20 06:51:47;;;;;;;44.60;22.03;;;7.10;58.80;;;;;;5082452;28;20498;-76
2022/03/20 06:54:13;;;;;;;48.80;22.80;;;7.00;58.90;;;;;;5081223;28;20428;-79
2022/03/20 06:56:39;;;;;;;44.07;22.50;;;7.00;59.50;;;;;;5098502;28;20556;-79
2022/03/20 06:59:05;;;;;;;41.33;22.17;;;7.00;59.50;;;;;;5100220;28;20450;-76
2022/03/20 07:01:31;;;;;;;43.60;22.77;;;7.10;59.60;;;;;;5096535;28;20473;-78
2022/03/20 07:03:57;;;;;;;46.33;22.13;;;7.10;59.30;;;;;;5092479;28;20409;-77
2022/03/20 07:06:28;;;;;;;41.53;21.60;;;7.10;59.70;;;;;;5076802;28;20910;-77
2022/03/20 07:09:00;;;;;;;41.13;22.30;;;7.10;59.60;;;;;;5095898;28;20409;-78
2022/03/20 07:11:32;;;;;;;42.23;21.97;;;7.10;59.60;;;;;;5095255;28;20445;-78
2022/03/20 07:13:59;;;;;;;42.80;21.93;;;7.20;59.60;;;;;;5097718;28;20428;-78
2022/03/20 07:16:30;;;;;;;45.13;21.93;;;7.30;59.90;;;;;;5094912;28;20412;-78
2022/03/20 07:18:56;;;;;;;46.57;23.40;;;7.30;59.60;;;;;;5078268;28;20433;-79
2022/03/20 07:21:23;;;;;;;42.97;21.70;;;7.30;59.30;;;;;;5092348;28;20483;-77
2022/03/20 07:23:49;;;;;;;46.40;23.80;;;7.30;59.30;;;;;;5095172;28;20474;-78
2022/03/20 07:31:43;;;;;;;43.30;23.30;;;7.50;59.10;;;;;;5095256;28;20499;-78
2022/03/20 07:34:09;;;;;;;51.97;23.80;;;7.50;59.10;;;;;;5097368;28;20504;-78
2022/03/20 07:36:36;;;;;;;46.00;25.60;;;7.50;58.90;;;;;;5094927;28;20445;-79
2022/03/20 07:39:02;;;;;;;46.50;23.90;;;7.50;58.90;;;;;;5098111;28;20175;-78
2022/03/20 07:41:27;;;;;;;44.57;22.40;;;7.60;58.90;;;;;;5084549;28;20469;-76
2022/03/20 07:43:54;;;;;;;45.17;23.73;;;7.70;58.70;;;;;;5087742;28;20855;-77
2022/03/20 07:46:20;;;;;;;44.33;23.80;;;7.70;58.50;;;;;;5093574;28;20266;-79
2022/03/20 07:48:47;;;;;;;41.57;21.20;;;7.80;58.50;;;;;;5078017;28;20457;-79
2022/03/20 07:51:16;;;;;;;49.07;23.73;;;7.80;58.50;;;;;;5096973;28;20441;-77
2022/03/20 07:53:45;;;;;;;49.30;24.27;;;7.90;58.20;;;;;;5096225;28;20947;-78
2022/03/20 07:56:10;;;;;;;47.80;24.20;;;8.00;58.20;;;;;;5094552;28;20417;-77
2022/03/20 07:58:36;;;;;;;40.87;22.20;;;8.00;58.10;;;;;;5094486;28;20420;-78
2022/03/20 08:01:02;;;;;;;41.70;23.50;;;8.10;57.80;;;;;;5076403;28;20226;-78
2022/03/20 08:03:27;;;;;;;42.77;23.03;;;8.20;57.70;;;;;;5095343;28;20179;-78
2022/03/20 08:05:53;;;;;;;45.40;22.90;;;8.30;57.40;;;;;;5081626;28;20210;-77
2022/03/20 08:08:19;;;;;;;44.57;24.03;;;8.40;57.80;;;;;;5094612;28;20288;-80
2022/03/20 08:10:45;;;;;;;41.50;23.13;;;8.40;57.60;;;;;;5090690;28;20641;-78
2022/03/20 08:13:11;;;;;;;49.10;24.07;;;8.50;56.90;;;;;;5093895;28;20677;-76
2022/03/20 08:15:39;;;;;;;45.73;23.90;;;8.50;56.80;;;;;;5095011;28;20547;-79
2022/03/20 08:18:07;;;;;;;45.90;24.40;;;8.60;56.60;;;;;;5095068;28;20440;-78
2022/03/20 08:20:33;;;;;;;44.40;23.03;;;8.70;56.50;;;;;;5094570;28;20480;-77
2022/03/20 08:23:00;;;;;;;48.73;24.70;;;8.80;56.20;;;;;;5083956;28;20417;-77
2022/03/20 08:25:26;;;;;;;43.80;24.90;;;8.80;56.20;;;;;;5093838;28;20501;-76
2022/03/20 08:27:55;;;;;;;45.43;23.77;;;8.80;55.80;;;;;;5094023;28;20429;-76
2022/03/20 08:30:21;;;;;;;45.60;24.13;;;8.90;56.00;;;;;;5094280;28;20420;-78
2022/03/20 08:32:47;;;;;;;43.03;21.67;;;8.90;55.80;;;;;;5094056;28;20502;-78
2022/03/20 08:35:15;;;;;;;48.00;24.83;;;9.00;55.80;;;;;;5093925;28;20419;-77
2022/03/20 08:37:43;;;;;;;48.50;24.67;;;9.10;55.40;;;;;;5093861;28;20424;-78
2022/03/20 08:40:15;;;;;;;54.63;26.07;;;9.20;55.30;;;;;;5109850;28;20432;-78
2022/03/20 08:42:45;;;;;;;42.67;22.93;;;9.30;55.00;;;;;;5102513;28;20444;-78
2022/03/20 08:45:11;;;;;;;47.50;23.87;;;9.40;55.30;;;;;;5093362;28;20401;-78
2022/03/20 08:47:38;;;;;;;43.53;22.60;;;9.40;54.80;;;;;;5074883;28;20493;-79
2022/03/20 08:50:04;;;;;;;43.43;23.43;;;9.50;54.90;;;;;;5092932;28;20533;-80
2022/03/20 08:52:30;;;;;;;47.90;23.83;;;9.60;54.60;;;;;;5093489;28;20433;-79
2022/03/20 08:54:56;;;;;;;50.47;25.00;;;9.80;54.50;;;;;;5080289;28;20919;-79
2022/03/20 08:57:25;;;;;;;46.90;23.30;;;9.90;54.20;;;;;;5091932;28;20421;-78
2022/03/20 08:59:52;;;;;;;46.70;23.57;;;10.00;54.10;;;;;;5092467;28;20926;-76
2022/03/20 09:02:18;;;;;;;44.97;23.27;;;10.10;54.10;;;;;;5089262;28;20547;-76
2022/03/20 09:04:43;;;;;;;46.33;24.00;;;10.20;54.40;;;;;;5083343;28;20433;-77
2022/03/20 09:07:09;;;;;;;46.27;23.70;;;10.40;53.70;;;;;;5092128;28;20586;-76
2022/03/20 09:09:35;;;;;;;46.77;23.20;;;10.40;53.60;;;;;;5074881;28;20632;-78
2022/03/20 09:12:01;;;;;;;43.73;22.47;;;10.50;53.00;;;;;;5093360;28;20207;-78
2022/03/20 09:14:27;;;;;;;38.77;20.87;;;10.60;53.20;;;;;;5076568;28;20183;-79
2022/03/20 09:19:38;;;;;;;41.07;21.60;;;11.00;52.50;;;;;;5098336;28;20792;-78
2022/03/20 09:22:10;;;;;;;41.57;22.57;;;11.10;51.80;;;;;;5083306;28;20468;-76
2022/03/20 09:24:36;;;;;;;41.97;22.03;;;11.20;50.90;;;;;;5094962;28;20175;-79
2022/03/20 09:27:02;;;;;;;41.83;21.10;;;11.30;49.70;;;;;;5078508;28;20418;-81
2022/03/20 09:29:28;;;;;;;40.80;20.00;;;11.50;49.40;;;;;;5096127;28;20638;-79
2022/03/20 09:31:54;;;;;;;37.27;19.77;;;11.60;48.10;;;;;;5070673;28;20594;-76
2022/03/20 09:34:20;;;;;;;40.83;21.20;;;11.80;47.70;;;;;;5092443;28;20304;-78
2022/03/20 09:36:46;;;;;;;36.43;20.20;;;11.90;47.50;;;;;;5075489;28;20437;-77
2022/03/20 09:39:11;;;;;;;40.47;20.53;;;12.00;47.70;;;;;;5095101;28;20716;-76
2022/03/20 09:41:43;;;;;;;38.87;20.43;;;12.20;47.50;;;;;;5094864;28;20275;-77
2022/03/20 09:44:10;;;;;;;40.90;21.33;;;12.40;47.00;;;;;;5077304;28;20171;-76
2022/03/20 09:46:36;;;;;;;39.13;20.23;;;12.50;47.00;;;;;;5096114;28;20474;-77
2022/03/20 09:49:05;;;;;;;43.20;20.63;;;12.70;46.70;;;;;;5079611;28;20440;-78
2022/03/20 09:51:32;;;;;;;42.10;19.83;;;13.00;46.20;;;;;;5096282;28;20995;-77
2022/03/20 09:53:58;;;;;;;29.63;18.17;;;13.30;45.90;;;;;;5093638;28;20520;-77
2022/03/20 09:56:24;;;;;;;41.17;19.97;;;13.50;45.40;;;;;;5093441;28;20453;-77
2022/03/20 09:58:50;;;;;;;41.33;21.20;;;13.70;44.90;;;;;;5094457;28;20190;-78
2022/03/20 10:01:17;;;;;;;36.07;18.97;;;14.00;44.60;;;;;;5097918;28;20702;-78
2022/03/20 10:03:43;;;;;;;36.70;19.63;;;14.20;44.20;;;;;;5095953;28;20182;-78
2022/03/20 10:06:17;;;;;;;37.10;19.50;;;14.30;44.50;;;;;;5095266;28;20421;-76
2022/03/20 10:08:55;;;;;;;36.93;19.50;;;14.50;44.20;;;;;;5096335;28;20259;-76
2022/03/20 10:11:21;;;;;;;38.63;20.03;;;14.70;44.20;;;;;;5074486;28;20452;-77
2022/03/20 10:14:05;;;;;;;41.80;19.40;;;15.00;43.90;;;;;;5092719;28;20406;-77
2022/03/20 10:16:31;;;;;;;33.67;18.67;;;15.10;44.30;;;;;;5092450;28;20524;-77
2022/03/20 10:18:57;;;;;;;34.17;18.50;;;15.30;44.20;;;;;;5092860;28;20925;-78
2022/03/20 10:21:41;;;;;;;38.50;18.30;;;15.50;44.30;;;;;;5072091;28;20565;-77
2022/03/20 10:24:18;;;;;;;37.07;18.27;;;15.50;45.10;;;;;;5080511;28;20248;-77
2022/03/20 10:26:45;;;;;;;37.33;18.27;;;15.40;45.10;;;;;;5070668;28;20417;-77
2022/03/20 10:29:15;;;;;;;39.07;18.03;;;15.10;45.90;;;;;;5093652;28;20523;-77
2022/03/20 10:31:53;;;;;;;44.17;17.80;;;14.80;46.90;;;;;;5093708;28;20438;-77
2022/03/20 10:34:20;;;;;;;35.43;18.13;;;14.50;47.40;;;;;;5093882;28;20888;-77
2022/03/20 10:36:48;;;;;;;34.40;17.53;;;14.40;47.90;;;;;;5094121;28;20413;-77
2022/03/20 10:39:16;;;;;;;33.33;16.77;;;14.40;48.10;;;;;;5075157;28;20436;-80
2022/03/20 10:41:45;;;;;;;37.90;18.73;;;14.50;47.80;;;;;;5091361;28;20549;-77
2022/03/20 10:44:24;;;;;;;35.40;17.97;;;14.60;47.90;;;;;;5091520;28;20521;-79
2022/03/20 10:47:02;;;;;;;40.70;18.80;;;14.80;47.30;;;;;;5090428;28;20424;-79
2022/03/20 10:49:28;;;;;;;39.20;18.27;;;14.80;47.30;;;;;;5083444;28;20922;-80
2022/03/20 10:52:25;;;;;;;37.43;17.63;;;15.00;47.00;;;;;;5091007;28;20450;-79
2022/03/20 10:54:53;;;;;;;30.30;15.73;;;15.00;47.00;;;;;;5101876;28;20494;-80
2022/03/20 10:57:20;;;;;;;31.93;16.47;;;14.90;47.40;;;;;;5091495;28;20479;-80
2022/03/20 11:00:01;;;;;;;33.93;16.30;;;15.00;47.30;;;;;;5091986;28;20429;-78
2022/03/20 11:02:27;;;;;;;33.70;17.23;;;15.10;46.90;;;;;;5091943;28;20549;-80
2022/03/20 11:04:54;;;;;;;31.07;17.50;;;15.20;46.70;;;;;;5073450;28;20458;-79
2022/03/20 11:07:21;;;;;;;38.87;18.47;;;15.20;46.90;;;;;;5101095;28;20172;-79
2022/03/20 11:09:48;;;;;;;31.80;17.37;;;15.20;46.70;;;;;;5090725;28;20427;-78
2022/03/20 11:12:29;;;;;;;33.00;16.77;;;15.30;46.50;;;;;;5076145;28;20471;-79
2022/03/20 11:14:59;;;;;;;34.17;16.10;;;15.50;46.60;;;;;;5091619;28;20436;-78
2022/03/20 11:17:30;;;;;;;35.87;15.93;;;15.80;46.20;;;;;;5088818;28;20953;-79
2022/03/20 11:19:57;;;;;;;34.83;17.30;;;15.90;45.10;;;;;;5091530;28;20472;-79
2022/03/20 11:22:24;;;;;;;32.07;17.80;;;16.10;44.90;;;;;;5082522;28;20993;-79
2022/03/20 11:24:55;;;;;;;33.10;17.10;;;16.30;44.20;;;;;;5091102;28;20513;-79
2022/03/20 11:27:30;;;;;;;28.10;15.77;;;16.50;44.20;;;;;;5092712;28;20451;-79
2022/03/20 11:30:09;;;;;;;31.00;16.50;;;16.60;43.40;;;;;;5095101;28;20448;-80
2022/03/20 11:32:35;;;;;;;36.10;18.23;;;16.70;43.20;;;;;;5100610;28;20507;-79
2022/03/20 11:35:04;;;;;;;32.10;17.23;;;16.90;42.70;;;;;;5101380;28;20416;-78
2022/03/20 11:37:48;;;;;;;30.03;15.70;;;17.10;42.30;;;;;;5099744;28;20425;-78
2022/03/20 11:40:20;;;;;;;33.53;16.93;;;17.30;42.00;;;;;;5099751;28;20456;-77
2022/03/20 11:42:50;;;;;;;32.60;15.50;;;17.30;41.60;;;;;;5099322;28;20436;-76
2022/03/20 11:45:20;;;;;;;27.10;15.77;;;17.20;41.60;;;;;;5098033;28;20408;-79
2022/03/20 11:47:48;;;;;;;30.63;16.37;;;17.70;41.60;;;;;;5095108;28;20566;-77
2022/03/20 11:50:25;;;;;;;28.73;14.40;;;18.10;39.90;;;;;;5093399;28;20445;-77
2022/03/20 11:53:03;;;;;;;26.77;14.40;;;18.40;39.40;;;;;;5098677;28;20404;-77
2022/03/20 11:55:42;;;;;;;27.20;15.47;;;18.90;37.90;;;;;;5074755;28;20405;-78
2022/03/20 11:58:17;;;;;;;23.93;13.73;;;18.80;37.60;;;;;;5082793;28;20417;-80
2022/03/20 12:00:45;;;;;;;27.87;13.93;;;18.70;37.80;;;;;;5099443;28;20482;-76
2022/03/20 12:03:13;;;;;;;26.80;14.03;;;18.70;37.90;;;;;;5100332;28;20425;-78
2022/03/20 12:05:42;;;;;;;25.33;13.60;;;18.70;37.90;;;;;;5081694;28;20417;-78
2022/03/20 12:08:35;;;;;;;24.73;13.20;;;18.70;37.60;;;;;;5100165;28;20431;-77
2022/03/20 12:11:36;;;;;;;29.43;14.20;;;18.80;37.90;;;;;;5103080;28;20432;-78
2022/03/20 12:14:28;;;;;;;25.47;14.57;;;18.90;38.20;;;;;;5100334;28;20480;-76
2022/03/20 12:16:58;;;;;;;27.77;15.03;;;19.00;37.60;;;;;;5088903;28;20524;-77
2022/03/20 12:19:41;;;;;;;24.10;13.20;;;19.20;37.40;;;;;;5100035;28;20943;-78
2022/03/20 12:22:15;;;;;;;27.70;14.33;;;19.00;37.20;;;;;;5099103;28;20473;-78
2022/03/20 12:24:45;;;;;;;26.20;13.77;;;19.00;37.20;;;;;;5105196;28;20484;-77
2022/03/20 12:27:23;;;;;;;28.20;14.93;;;19.10;37.60;;;;;;5098905;28;20449;-75
2022/03/20 12:29:49;;;;;;;26.63;14.70;;;18.80;37.40;;;;;;5098007;28;20433;-78
2022/03/20 12:32:16;;;;;;;25.20;15.03;;;18.60;38.00;;;;;;5097261;28;20859;-78
2022/03/20 12:35:03;;;;;;;32.10;14.40;;;18.40;38.20;;;;;;5096970;28;20421;-79
2022/03/20 12:37:33;;;;;;;28.73;14.20;;;18.00;38.80;;;;;;5082527;28;20425;-77
2022/03/20 12:40:18;;;;;;;23.70;13.20;;;17.80;39.60;;;;;;5095653;28;20444;-76
2022/03/20 12:43:03;;;;;;;28.83;14.90;;;17.50;40.40;;;;;;5097280;28;20506;-77
2022/03/20 12:45:31;;;;;;;27.00;13.73;;;17.30;40.70;;;;;;5096837;28;20416;-78
2022/03/20 12:48:03;;;;;;;28.50;13.70;;;17.20;41.10;;;;;;5096196;28;20408;-78
2022/03/20 12:50:34;;;;;;;27.07;13.60;;;17.00;41.20;;;;;;5078420;28;20458;-79
2022/03/20 12:53:08;;;;;;;26.30;12.83;;;16.80;40.80;;;;;;5095691;28;20482;-76
2022/03/20 12:55:37;;;;;;;26.77;13.10;;;16.60;41.20;;;;;;5096208;28;20417;-77
2022/03/20 12:58:04;;;;;;;26.37;13.70;;;16.90;41.10;;;;;;5095958;28;20441;-78
2022/03/20 13:00:32;;;;;;;28.70;13.43;;;17.20;40.70;;;;;;5080363;28;20413;-77
2022/03/20 13:03:01;;;;;;;31.50;14.13;;;17.50;40.00;;;;;;5096324;28;20460;-78
2022/03/20 13:05:29;;;;;;;24.27;12.03;;;17.90;39.40;;;;;;5083534;28;20521;-79
2022/03/20 13:07:55;;;;;;;26.17;13.10;;;18.10;38.30;;;;;;5094655;28;20440;-78